Time;durP1;ratioP1;P1;durP2;ratioP2;P2;SDS_P1;SDS_P2;PMS_P1;PMS_P2;Temp;Humidity;BMP_temperature;BMP_pressure;BME280_temperature;BME280_humidity;BME280_pressure;Samples;Min_cycle;Max_cycle;Signal;HPM_P1;HPM_P2
2023/01/12 00:07:40;;;;;;;0.20;0.10;;;9.00;99.90;;;;;;21157359;28;20402;-72
2023/01/12 00:17:45;;;;;;;0.20;0.10;;;8.80;99.90;;;;;;21155389;28;20407;-72
2023/01/12 00:27:49;;;;;;;0.20;0.10;;;9.20;99.90;;;;;;21154793;28;20410;-72
2023/01/12 00:37:55;;;;;;;0.20;0.10;;;9.30;99.90;;;;;;21154636;28;20410;-72
2023/01/12 00:47:59;;;;;;;0.20;0.10;;;9.20;99.90;;;;;;21152711;28;20398;-72
2023/01/12 00:58:04;;;;;;;0.20;0.10;;;9.90;99.90;;;;;;21152109;28;20401;-72
2023/01/12 01:08:08;;;;;;;0.20;0.10;;;9.80;99.90;;;;;;21150570;28;20411;-73
2023/01/12 01:18:13;;;;;;;0.20;0.10;;;9.70;99.90;;;;;;21151759;28;20464;-73
2023/01/12 01:28:18;;;;;;;0.20;0.10;;;9.60;99.90;;;;;;21150232;28;20406;-73
2023/01/12 01:38:24;;;;;;;0.20;0.08;;;9.50;99.90;;;;;;21090076;28;20399;-73
2023/01/12 01:48:30;;;;;;;0.20;0.10;;;9.50;99.90;;;;;;21129795;28;20406;-74
2023/01/12 01:58:38;;;;;;;0.20;0.10;;;9.50;99.90;;;;;;21149270;28;20399;-73
2023/01/12 02:08:48;;;;;;;0.20;0.10;;;9.30;99.90;;;;;;21146765;28;20417;-74
2023/01/12 02:19:21;;;;;;;0.20;0.10;;;9.30;99.90;;;;;;21146126;28;20503;-74
2023/01/12 02:29:55;;;;;;;0.23;0.17;;;9.60;99.90;;;;;;21147721;28;20916;-73
2023/01/12 02:40:06;;;;;;;0.20;0.10;;;9.90;99.90;;;;;;21121572;28;20395;-72
2023/01/12 02:50:14;;;;;;;0.20;0.10;;;10.10;99.90;;;;;;21057599;28;20817;-72
2023/01/12 03:00:20;;;;;;;0.20;0.10;;;9.80;99.90;;;;;;21060908;28;20917;-72
2023/01/12 03:10:46;;;;;;;0.20;0.10;;;9.50;99.90;;;;;;21061627;28;20495;-72
2023/01/12 03:20:55;;;;;;;0.20;0.10;;;9.50;99.90;;;;;;21066495;28;20412;-74
2023/01/12 03:31:03;;;;;;;0.20;0.10;;;9.40;99.90;;;;;;21076230;28;20473;-74
2023/01/12 03:41:14;;;;;;;0.20;0.10;;;9.80;99.90;;;;;;21157970;28;20818;-74
2023/01/12 03:51:22;;;;;;;0.20;0.10;;;9.70;99.90;;;;;;21158940;28;20455;-74
2023/01/12 04:01:27;;;;;;;0.20;0.00;;;9.50;99.90;;;;;;21156546;28;20809;-72
2023/01/12 04:32:16;;;;;;;0.20;0.10;;;8.90;99.90;;;;;;21147574;28;20866;-73
2023/01/12 04:52:42;;;;;;;0.20;0.10;;;8.90;99.90;;;;;;21070160;28;20973;-72
2023/01/12 05:02:47;;;;;;;0.20;0.10;;;8.90;99.90;;;;;;21066750;28;20392;-74
2023/01/12 05:12:51;;;;;;;0.20;0.10;;;8.90;99.90;;;;;;21063437;28;20420;-73
2023/01/12 05:22:57;;;;;;;0.20;0.10;;;9.10;99.90;;;;;;21113289;28;20826;-73
2023/01/12 05:33:00;;;;;;;0.20;0.10;;;9.10;99.90;;;;;;21149554;28;20479;-73
2023/01/12 05:53:28;;;;;;;0.20;0.10;;;9.10;99.90;;;;;;21149930;28;20407;-73
2023/01/12 06:03:34;;;;;;;0.20;0.10;;;9.30;99.90;;;;;;21146932;28;20496;-75
2023/01/12 06:24:00;;;;;;;0.20;0.10;;;9.00;99.90;;;;;;21145116;28;20448;-72
2023/01/12 06:34:06;;;;;;;0.20;0.10;;;8.60;99.90;;;;;;21144317;28;20409;-72
2023/01/12 06:44:11;;;;;;;0.20;0.10;;;8.40;99.90;;;;;;21144553;28;20402;-72
2023/01/12 06:54:16;;;;;;;0.20;0.10;;;8.60;99.90;;;;;;21144466;27;20414;-72
2023/01/12 07:04:22;;;;;;;0.20;0.10;;;8.90;99.90;;;;;;21157111;27;20897;-74
2023/01/12 07:14:26;;;;;;;0.20;0.10;;;8.90;99.90;;;;;;21160219;28;20876;-72
2023/01/12 07:24:32;;;;;;;0.20;0.10;;;8.80;99.90;;;;;;21139967;28;20455;-74
2023/01/12 07:34:35;;;;;;;0.20;0.10;;;8.80;99.90;;;;;;21158684;28;20422;-75
2023/01/12 07:44:41;;;;;;;0.20;0.10;;;8.70;99.90;;;;;;21158615;27;20418;-72
2023/01/12 07:54:44;;;;;;;0.20;0.10;;;8.80;99.90;;;;;;21155504;28;20841;-73
2023/01/12 08:04:50;;;;;;;0.20;0.10;;;9.00;99.90;;;;;;21136047;28;20394;-74
2023/01/12 08:14:54;;;;;;;0.20;0.10;;;9.10;99.90;;;;;;21153290;28;20410;-71
2023/01/12 08:25:06;;;;;;;0.20;0.10;;;9.30;99.90;;;;;;21134832;28;20930;-70
2023/01/12 08:35:12;;;;;;;0.20;0.10;;;9.20;99.90;;;;;;21151964;28;20429;-72
2023/01/12 08:45:18;;;;;;;0.20;0.10;;;9.20;99.90;;;;;;21152489;27;20433;-72
2023/01/12 08:55:22;;;;;;;0.20;0.10;;;9.30;99.90;;;;;;21150641;28;20473;-75
2023/01/12 09:05:27;;;;;;;0.20;0.10;;;9.60;99.90;;;;;;21150597;28;20445;-73
2023/01/12 09:15:31;;;;;;;0.20;0.10;;;9.80;99.90;;;;;;21149762;28;20391;-72
2023/01/12 09:25:37;;;;;;;0.20;0.10;;;10.00;99.90;;;;;;21145349;28;20897;-66
2023/01/12 09:35:43;;;;;;;0.20;0.08;;;10.10;99.90;;;;;;21149252;28;20478;-71
2023/01/12 09:56:18;;;;;;;0.20;0.00;;;11.10;99.90;;;;;;21056965;28;20430;-72
2023/01/12 10:06:23;;;;;;;0.20;0.10;;;11.40;99.90;;;;;;21060285;28;20411;-72
2023/01/12 10:16:36;;;;;;;0.20;0.00;;;11.80;99.90;;;;;;21060003;28;20780;-72
2023/01/12 10:26:43;;;;;;;0.20;0.00;;;12.20;99.90;;;;;;21056299;28;20440;-71
2023/01/12 10:36:49;;;;;;;0.20;0.10;;;12.60;99.90;;;;;;21058461;28;20412;-70
2023/01/12 10:47:09;;;;;;;0.20;0.10;;;13.10;99.90;;;;;;21057039;28;20416;-70
2023/01/12 10:57:18;;;;;;;0.20;0.00;;;14.40;99.90;;;;;;21059043;28;20721;-71
2023/01/12 11:07:27;;;;;;;0.20;0.10;;;15.30;99.90;;;;;;21057677;28;20743;-70
2023/01/12 11:17:47;;;;;;;0.20;0.10;;;16.50;99.90;;;;;;21059383;28;20439;-72
2023/01/12 11:27:58;;;;;;;0.20;0.10;;;16.90;99.90;;;;;;21056821;28;20408;-71
2023/01/12 11:38:09;;;;;;;0.20;0.00;;;16.00;99.90;;;;;;21056632;28;20790;-72
2023/01/12 11:48:23;;;;;;;0.20;0.10;;;16.60;99.90;;;;;;21070076;28;20840;-68
2023/01/12 11:58:34;;;;;;;0.20;0.10;;;16.70;99.90;;;;;;21139890;28;20448;-71
2023/01/12 12:08:50;;;;;;;0.20;0.10;;;17.70;99.90;;;;;;21154826;28;20419;-71
2023/01/12 12:19:09;;;;;;;0.20;0.10;;;17.90;99.90;;;;;;21155545;28;20428;-67
2023/01/12 12:29:31;;;;;;;0.20;0.10;;;18.70;99.90;;;;;;21154395;28;20406;-72
2023/01/12 12:39:47;;;;;;;0.20;0.10;;;18.70;99.90;;;;;;21126116;28;20396;-71
2023/01/12 12:49:56;;;;;;;0.20;0.10;;;18.50;99.90;;;;;;21060441;28;20474;-71
2023/01/12 12:59:59;;;;;;;0.20;0.00;;;18.50;99.90;;;;;;21064383;28;20400;-70
2023/01/12 13:10:25;;;;;;;0.20;0.00;;;18.10;99.90;;;;;;21067030;28;20420;-70
2023/01/12 13:20:58;;;;;;;0.20;0.00;;;18.30;99.90;;;;;;21064196;28;20400;-70
2023/01/12 13:31:32;;;;;;;0.20;0.10;;;18.60;99.90;;;;;;21063744;28;20416;-71
2023/01/12 13:52:03;;;;;;;0.20;0.10;;;18.60;99.90;;;;;;21062970;28;20790;-69
2023/01/12 14:02:18;;;;;;;0.20;0.20;;;18.30;99.90;;;;;;21061229;28;20461;-70
2023/01/12 14:12:44;;;;;;;0.20;0.10;;;18.30;99.90;;;;;;21061971;28;20430;-69
2023/01/12 14:22:49;;;;;;;0.20;0.10;;;18.60;99.90;;;;;;21059912;28;20798;-72
2023/01/12 14:32:54;;;;;;;0.20;0.10;;;18.90;99.90;;;;;;21058981;28;20952;-70
2023/01/12 14:53:33;;;;;;;0.20;0.00;;;19.40;99.90;;;;;;21041328;28;20993;-71
2023/01/12 15:03:37;;;;;;;0.20;0.10;;;17.60;99.90;;;;;;21053622;28;20507;-70
2023/01/12 15:13:56;;;;;;;0.20;0.10;;;16.90;99.90;;;;;;21056366;28;20882;-70
2023/01/12 15:34:23;;;;;;;0.20;0.10;;;16.90;99.90;;;;;;21071306;28;20899;-71
2023/01/12 15:44:27;;;;;;;0.20;0.00;;;18.00;99.90;;;;;;21065697;28;20407;-68
2023/01/12 15:54:32;;;;;;;0.20;0.10;;;17.30;99.90;;;;;;21067364;28;20408;-68
2023/01/12 16:04:36;;;;;;;0.20;0.10;;;16.60;99.90;;;;;;21066066;28;20436;-70
2023/01/12 16:14:47;;;;;;;0.20;0.10;;;16.30;99.90;;;;;;21062135;28;20895;-65
2023/01/12 16:24:53;;;;;;;0.20;0.10;;;15.10;99.90;;;;;;21061968;28;20404;-70
2023/01/12 16:34:58;;;;;;;0.20;0.10;;;14.60;99.90;;;;;;21061678;28;20462;-70
2023/01/12 16:45:02;;;;;;;0.20;0.10;;;14.30;99.90;;;;;;21117861;28;20448;-71
2023/01/12 16:55:07;;;;;;;0.20;0.10;;;14.10;99.90;;;;;;21151410;28;20890;-70
2023/01/12 17:05:11;;;;;;;0.20;0.10;;;13.90;99.90;;;;;;21135802;28;20398;-70
2023/01/12 17:15:17;;;;;;;0.20;0.10;;;12.40;99.90;;;;;;21149234;28;20543;-70
2023/01/12 17:25:20;;;;;;;0.20;0.10;;;11.80;99.90;;;;;;21148147;28;20537;-71
2023/01/12 17:35:26;;;;;;;0.20;0.10;;;11.50;99.90;;;;;;21147384;28;20417;-71
2023/01/12 17:45:30;;;;;;;0.20;0.10;;;11.10;99.90;;;;;;21143545;28;20501;-71
2023/01/12 17:55:35;;;;;;;0.20;0.10;;;11.00;99.90;;;;;;21143494;28;20544;-71
2023/01/12 18:05:50;;;;;;;0.20;0.10;;;10.70;99.90;;;;;;21123672;28;20427;-71
2023/01/12 18:16:10;;;;;;;0.20;0.10;;;10.70;99.90;;;;;;21142388;28;20411;-71
2023/01/12 18:26:16;;;;;;;0.20;0.10;;;10.50;99.90;;;;;;21141856;28;20410;-70
2023/01/12 18:36:23;;;;;;;0.20;0.10;;;11.00;99.90;;;;;;21137737;28;20410;-69
2023/01/12 18:48:19;;;;;;;0.20;0.10;;;10.40;99.90;;;;;;21141537;28;20463;-70
2023/01/12 18:56:54;;;;;;;0.20;0.10;;;10.30;99.90;;;;;;21140940;27;20917;-69
2023/01/12 19:07:00;;;;;;;0.20;0.10;;;9.80;99.90;;;;;;21159220;28;20849;-68
2023/01/12 19:37:50;;;;;;;0.20;0.10;;;9.80;99.90;;;;;;21110312;28;20464;-70
2023/01/12 19:47:54;;;;;;;0.20;0.10;;;9.70;99.90;;;;;;21071148;28;20767;-69
2023/01/12 19:58:00;;;;;;;0.20;0.10;;;9.50;99.90;;;;;;21071690;28;20401;-69
2023/01/12 20:08:04;;;;;;;0.20;0.10;;;9.50;99.90;;;;;;21068917;28;20460;-69
2023/01/12 20:18:09;;;;;;;0.20;0.10;;;10.00;99.90;;;;;;21070843;28;21210;-69
2023/01/12 20:28:14;;;;;;;0.20;0.10;;;10.00;99.90;;;;;;21068616;28;20412;-69
2023/01/12 20:38:21;;;;;;;0.20;0.10;;;10.00;99.90;;;;;;21069371;28;20428;-69
2023/01/12 20:48:25;;;;;;;0.20;0.10;;;10.20;99.90;;;;;;21066542;28;20405;-70
2023/01/12 20:58:31;;;;;;;0.20;0.10;;;10.60;99.90;;;;;;21067443;28;20396;-71
2023/01/12 21:08:35;;;;;;;0.20;0.10;;;10.80;99.90;;;;;;21067186;28;20455;-70
2023/01/12 21:18:40;;;;;;;0.20;0.10;;;11.00;99.90;;;;;;21065512;28;20469;-70
2023/01/12 21:28:45;;;;;;;0.20;0.10;;;11.10;99.90;;;;;;21144279;28;20414;-70
2023/01/12 21:38:51;;;;;;;0.20;0.10;;;11.20;99.90;;;;;;21146608;28;20387;-66
2023/01/12 21:48:55;;;;;;;0.20;0.10;;;11.50;99.90;;;;;;21129974;28;20414;-69
2023/01/12 21:59:00;;;;;;;0.20;0.10;;;11.50;99.90;;;;;;21146787;28;20390;-68
2023/01/12 22:09:04;;;;;;;0.20;0.10;;;11.40;99.90;;;;;;21145950;28;20970;-68
2023/01/12 22:19:09;;;;;;;0.20;0.10;;;11.30;99.90;;;;;;21144617;28;20452;-68
2023/01/12 22:29:13;;;;;;;0.20;0.03;;;10.80;99.90;;;;;;21144713;28;20406;-70
2023/01/12 22:39:18;;;;;;;0.20;0.10;;;10.90;99.90;;;;;;21078516;28;20407;-71
2023/01/12 22:49:22;;;;;;;0.20;0.10;;;11.20;99.90;;;;;;21061937;28;20426;-70
2023/01/12 22:59:27;;;;;;;0.20;0.10;;;10.90;99.90;;;;;;21061048;28;20407;-70
2023/01/12 23:09:31;;;;;;;0.20;0.10;;;10.10;99.90;;;;;;21059633;28;20434;-70
2023/01/12 23:19:36;;;;;;;0.20;0.10;;;10.10;99.90;;;;;;21059985;28;20458;-70
2023/01/12 23:29:40;;;;;;;0.20;0.10;;;11.00;99.90;;;;;;21057731;28;20809;-70
2023/01/12 23:39:45;;;;;;;0.20;0.10;;;11.00;99.90;;;;;;21069812;28;20393;-70
2023/01/12 23:49:49;;;;;;;0.20;0.10;;;11.10;99.90;;;;;;21074495;28;20530;-70
2023/01/12 23:59:55;;;;;;;0.20;0.10;;;10.80;99.90;;;;;;21158187;28;20390;-69
